createdAt,value
2023-05-23T00:02:10.024Z,19.78
2023-05-23T00:07:11.726Z,19.80
2023-05-23T00:12:13.304Z,19.72
2023-05-23T00:17:17.539Z,19.75
2023-05-23T00:22:19.219Z,19.64
2023-05-23T00:27:20.823Z,19.57
2023-05-23T00:32:22.520Z,19.47
2023-05-23T00:37:24.333Z,19.32
2023-05-23T00:42:26.133Z,19.29
2023-05-23T00:47:28.002Z,19.13
2023-05-23T00:52:29.660Z,18.48
2023-05-23T00:57:31.436Z,18.89
2023-05-23T01:02:36.605Z,18.75
2023-05-23T01:07:38.384Z,18.64
2023-05-23T01:12:51.078Z,18.42
2023-05-23T01:18:00.684Z,18.38
2023-05-23T01:23:48.470Z,18.06
2023-05-23T01:28:53.505Z,18.39
2023-05-23T01:33:56.937Z,18.39
2023-05-23T01:38:58.574Z,18.42
2023-05-23T01:44:00.725Z,18.48
2023-05-23T01:49:04.116Z,18.24
2023-05-23T01:54:07.650Z,18.45
2023-05-23T01:59:09.692Z,18.34
2023-05-23T02:04:11.429Z,18.33
2023-05-23T02:09:13.190Z,18.16
2023-05-23T02:14:14.779Z,18.16
2023-05-23T02:19:17.279Z,18.04
2023-05-23T02:24:21.389Z,17.94
2023-05-23T02:29:22.997Z,17.94
2023-05-23T02:34:24.839Z,17.82
2023-05-23T02:39:27.407Z,17.85
2023-05-23T02:44:30.374Z,17.84
2023-05-23T02:49:32.443Z,17.78
2023-05-23T02:54:34.405Z,17.83
2023-05-23T02:59:36.099Z,17.75
2023-05-23T03:04:38.357Z,17.67
2023-05-23T03:09:40.035Z,17.67
2023-05-23T03:14:41.731Z,17.67
2023-05-23T03:19:43.508Z,17.68
2023-05-23T03:24:45.273Z,17.74
2023-05-23T03:29:48.171Z,17.73
2023-05-23T03:34:49.861Z,17.68
2023-05-23T03:39:51.544Z,17.74
2023-05-23T03:44:54.055Z,17.79
2023-05-23T03:49:56.709Z,17.56
2023-05-23T03:54:59.970Z,17.78
2023-05-23T04:00:06.135Z,17.88
2023-05-23T04:05:18.512Z,18.04
2023-05-23T04:10:20.981Z,17.92
2023-05-23T04:15:22.998Z,18.06
2023-05-23T04:20:30.546Z,18.12
2023-05-23T04:25:32.216Z,18.28
2023-05-23T04:30:54.211Z,18.19
2023-05-23T04:35:59.514Z,18.20
2023-05-23T04:41:01.507Z,18.08
2023-05-23T04:46:33.818Z,18.20
2023-05-23T04:52:01.505Z,18.26
2023-05-23T04:57:04.490Z,18.22
2023-05-23T05:02:06.569Z,18.29
2023-05-23T05:07:08.752Z,18.48
2023-05-23T05:12:10.619Z,18.51
2023-05-23T05:17:12.938Z,18.55
2023-05-23T05:22:25.835Z,18.56
2023-05-23T05:27:27.906Z,18.73
2023-05-23T05:32:36.417Z,18.78
2023-05-23T05:37:38.130Z,19.03
2023-05-23T05:42:39.928Z,19.01
2023-05-23T05:47:41.917Z,18.97
2023-05-23T05:52:43.838Z,19.08
2023-05-23T05:57:46.818Z,19.31
2023-05-23T06:02:55.033Z,19.65
2023-05-23T06:08:26.442Z,19.79
2023-05-23T06:13:28.331Z,19.72
2023-05-23T06:18:30.522Z,19.66
2023-05-23T06:23:32.431Z,19.66
2023-05-23T06:28:34.592Z,19.63
2023-05-23T06:33:36.596Z,19.49
2023-05-23T06:38:38.396Z,19.48
2023-05-23T06:43:41.007Z,19.57
2023-05-23T06:49:14.885Z,19.69
2023-05-23T06:54:19.604Z,19.77
2023-05-23T06:59:21.490Z,19.85
2023-05-23T07:04:23.988Z,20.17
2023-05-23T07:09:25.878Z,20.00
2023-05-23T07:14:38.311Z,19.99
2023-05-23T07:19:40.626Z,20.02
2023-05-23T07:24:42.264Z,19.91
2023-05-23T07:29:45.947Z,20.17
2023-05-23T07:34:49.516Z,20.70
2023-05-23T07:39:51.353Z,20.46
2023-05-23T07:44:53.540Z,20.45
2023-05-23T07:49:55.715Z,20.58
2023-05-23T07:54:58.922Z,20.51
2023-05-23T08:00:03.238Z,20.72
2023-05-23T08:05:05.773Z,20.90
2023-05-23T08:10:08.010Z,21.21
2023-05-23T08:15:10.386Z,20.97
2023-05-23T08:20:30.460Z,21.38
2023-05-23T08:25:32.599Z,21.03
2023-05-23T08:30:35.105Z,21.21
2023-05-23T08:35:37.885Z,21.57
2023-05-23T08:40:50.638Z,21.55
2023-05-23T08:45:53.737Z,21.18
2023-05-23T08:50:55.770Z,21.41
2023-05-23T08:56:02.657Z,21.44
2023-05-23T09:01:13.566Z,21.49
2023-05-23T09:06:16.161Z,21.56
2023-05-23T09:11:18.110Z,21.64
2023-05-23T09:16:20.417Z,21.56
2023-05-23T09:21:26.248Z,21.35
2023-05-23T09:26:38.174Z,21.32
2023-05-23T09:31:40.390Z,21.05
2023-05-23T09:36:44.143Z,21.02
2023-05-23T09:41:48.788Z,20.77
2023-05-23T09:46:53.780Z,20.81
2023-05-23T09:52:00.296Z,21.11
2023-05-23T09:57:02.925Z,21.01
2023-05-23T10:02:07.470Z,20.80
2023-05-23T10:07:17.269Z,20.81
2023-05-23T10:12:39.245Z,20.43
2023-05-23T10:18:07.826Z,20.64
2023-05-23T10:23:10.016Z,20.69
2023-05-23T10:28:12.202Z,21.24
2023-05-23T10:33:15.257Z,21.23
2023-05-23T10:38:16.962Z,21.27
2023-05-23T10:43:18.554Z,20.89
2023-05-23T10:48:40.913Z,21.10
2023-05-23T10:53:44.126Z,21.35
2023-05-23T10:58:45.805Z,21.28
2023-05-23T11:03:48.645Z,21.44
2023-05-23T11:09:11.887Z,21.36
2023-05-23T11:14:14.380Z,21.14
2023-05-23T11:19:19.573Z,21.09
2023-05-23T11:24:22.647Z,21.21
2023-05-23T11:29:29.206Z,21.23
2023-05-23T11:34:31.073Z,21.73
2023-05-23T11:39:32.761Z,21.37
2023-05-23T11:44:34.448Z,21.40
2023-05-23T11:49:39.890Z,21.38
2023-05-23T11:54:44.883Z,21.69
2023-05-23T11:59:46.543Z,21.39
2023-05-23T12:04:51.175Z,21.48
2023-05-23T12:09:56.689Z,21.53
2023-05-23T12:14:59.442Z,21.55
2023-05-23T12:20:01.460Z,21.49
2023-05-23T12:25:05.009Z,21.37
2023-05-23T12:30:14.254Z,21.34
2023-05-23T12:35:16.547Z,21.10
2023-05-23T12:40:19.339Z,20.93
2023-05-23T12:45:32.030Z,20.53
2023-05-23T12:50:33.729Z,20.74
2023-05-23T12:55:35.530Z,20.68
2023-05-23T13:00:37.816Z,20.54
2023-05-23T13:05:39.961Z,20.48
2023-05-23T13:10:42.085Z,20.14
2023-05-23T13:15:43.973Z,20.03
2023-05-23T13:20:46.497Z,20.13
2023-05-23T13:25:50.518Z,19.98
2023-05-23T13:30:52.166Z,19.88
2023-05-23T13:35:54.274Z,19.94
2023-05-23T13:40:55.988Z,19.75
2023-05-23T13:45:57.705Z,19.98
2023-05-23T13:50:59.590Z,20.03
2023-05-23T13:56:01.691Z,19.94
2023-05-23T14:01:03.319Z,19.69
2023-05-23T14:06:05.237Z,19.86
2023-05-23T14:11:06.895Z,19.84
2023-05-23T14:16:08.740Z,19.78
2023-05-23T14:21:10.643Z,20.02
2023-05-23T14:26:12.350Z,19.97
2023-05-23T14:31:13.977Z,19.98
2023-05-23T14:36:16.324Z,19.60
2023-05-23T14:41:18.689Z,19.68
2023-05-23T14:46:20.406Z,19.49
2023-05-23T14:51:41.811Z,19.24
2023-05-23T14:56:43.851Z,19.22
2023-05-23T15:01:45.722Z,19.31
2023-05-23T15:06:47.496Z,19.65
2023-05-23T15:11:49.596Z,19.26
2023-05-23T15:16:51.667Z,19.18
2023-05-23T15:21:53.317Z,18.90
2023-05-23T15:26:56.812Z,18.94
2023-05-23T15:32:01.962Z,18.81
2023-05-23T15:37:03.904Z,18.61
2023-05-23T15:42:05.954Z,18.70
2023-05-23T15:47:07.613Z,18.39
2023-05-23T15:52:09.288Z,18.43
2023-05-23T15:57:11.195Z,18.38
2023-05-23T16:02:12.909Z,18.37
2023-05-23T16:07:16.409Z,18.01
2023-05-23T16:12:19.940Z,18.12
2023-05-23T16:17:21.586Z,18.01
2023-05-23T16:22:23.702Z,17.93
2023-05-23T16:27:25.382Z,17.66
2023-05-23T16:32:30.879Z,17.74
2023-05-23T16:37:32.610Z,17.44
2023-05-23T16:42:34.313Z,17.53
2023-05-23T16:47:36.328Z,17.54
2023-05-23T16:52:39.588Z,17.56
2023-05-23T16:57:41.240Z,17.40
2023-05-23T17:02:42.981Z,17.27
2023-05-23T17:07:44.652Z,17.24
2023-05-23T17:12:46.366Z,17.01
2023-05-23T17:17:48.187Z,17.15
2023-05-23T17:22:51.799Z,16.91
2023-05-23T17:27:53.513Z,16.73
2023-05-23T17:32:55.345Z,17.00
2023-05-23T17:38:00.849Z,16.84
2023-05-23T17:43:02.554Z,16.56
2023-05-23T17:48:04.402Z,16.69
2023-05-23T17:53:06.299Z,16.28
2023-05-23T17:58:07.995Z,16.38
2023-05-23T18:03:09.823Z,16.21
2023-05-23T18:08:11.492Z,16.44
2023-05-23T18:13:16.129Z,16.10
2023-05-23T18:18:18.246Z,16.22
2023-05-23T18:23:19.990Z,15.82
2023-05-23T18:28:21.799Z,15.84
2023-05-23T18:33:23.450Z,15.77
2023-05-23T18:38:25.518Z,15.87
2023-05-23T18:43:27.194Z,15.91
2023-05-23T18:48:29.295Z,15.78
2023-05-23T18:53:31.248Z,15.80
2023-05-23T18:58:32.952Z,15.84
2023-05-23T19:03:36.834Z,15.58
2023-05-23T19:08:38.642Z,15.44
2023-05-23T19:13:40.326Z,15.38
2023-05-23T19:18:41.942Z,15.49
2023-05-23T19:23:43.566Z,15.29
2023-05-23T19:28:45.261Z,14.97
2023-05-23T19:33:46.955Z,15.25
2023-05-23T19:38:48.599Z,15.15
2023-05-23T19:43:50.470Z,14.99
2023-05-23T19:48:52.208Z,15.09
2023-05-23T19:53:54.614Z,14.94
2023-05-23T19:58:56.327Z,15.26
2023-05-23T20:03:58.040Z,15.04
2023-05-23T20:08:59.874Z,15.24
2023-05-23T20:14:01.569Z,15.22
2023-05-23T20:19:03.250Z,15.12
2023-05-23T20:24:05.155Z,15.10
2023-05-23T20:29:06.909Z,15.20
2023-05-23T20:34:08.587Z,15.19
2023-05-23T20:39:10.215Z,15.11
2023-05-23T20:44:12.197Z,15.29
2023-05-23T20:49:15.463Z,15.13
2023-05-23T20:54:17.139Z,14.90
2023-05-23T20:59:18.833Z,15.18
2023-05-23T21:04:20.600Z,15.16
2023-05-23T21:09:22.311Z,15.08
2023-05-23T21:14:24.081Z,14.99
2023-05-23T21:19:25.929Z,15.19
2023-05-23T21:24:27.945Z,15.12
2023-05-23T21:29:29.613Z,15.24
2023-05-23T21:34:31.309Z,15.12
2023-05-23T21:39:47.135Z,15.02
2023-05-23T21:44:52.687Z,14.97
2023-05-23T21:49:54.368Z,15.02
2023-05-23T21:54:56.221Z,15.17
2023-05-23T21:59:57.836Z,15.04
2023-05-23T22:04:59.521Z,14.96
2023-05-23T22:10:01.448Z,15.06
2023-05-23T22:15:03.573Z,15.10
2023-05-23T22:20:05.693Z,15.09
2023-05-23T22:25:08.016Z,14.92
2023-05-23T22:30:10.148Z,14.79
2023-05-23T22:35:11.808Z,14.86
2023-05-23T22:40:13.444Z,14.71
2023-05-23T22:45:15.379Z,14.70
2023-05-23T22:50:17.724Z,14.76
2023-05-23T22:55:19.372Z,14.76
2023-05-23T23:00:21.513Z,14.79
2023-05-23T23:05:23.226Z,14.76
2023-05-23T23:10:25.164Z,14.77
2023-05-23T23:15:26.819Z,14.70
2023-05-23T23:20:28.561Z,14.76
2023-05-23T23:25:30.390Z,14.45
2023-05-23T23:30:32.064Z,13.98
2023-05-23T23:35:33.718Z,13.88
2023-05-23T23:40:35.427Z,14.02
2023-05-23T23:45:37.091Z,13.85
2023-05-23T23:50:38.825Z,13.97
2023-05-23T23:55:40.530Z,14.09
